createdAt,value
2023-03-13T00:01:28.068Z,-0.03
2023-03-13T00:03:55.764Z,-0.04
2023-03-13T00:06:35.527Z,-0.03
2023-03-13T00:09:03.257Z,-0.05
2023-03-13T00:11:30.333Z,-0.06
2023-03-13T00:13:59.121Z,-0.05
2023-03-13T00:16:26.356Z,-0.01
2023-03-13T00:18:54.476Z,-0.01
2023-03-13T00:21:23.755Z,0.00
2023-03-13T00:23:50.646Z,0.02
2023-03-13T00:26:21.689Z,0.03
2023-03-13T00:28:51.056Z,0.03
2023-03-13T00:31:19.760Z,0.01
2023-03-13T00:33:53.761Z,-0.01
2023-03-13T00:36:26.636Z,0.01
2023-03-13T00:38:55.292Z,0.03
2023-03-13T00:41:25.741Z,0.05
2023-03-13T00:43:53.574Z,0.07
2023-03-13T00:46:23.229Z,0.09
2023-03-13T00:48:51.029Z,0.08
2023-03-13T00:51:19.689Z,0.09
2023-03-13T00:53:48.947Z,0.10
2023-03-13T00:56:20.074Z,0.12
2023-03-13T00:58:48.888Z,0.15
2023-03-13T01:01:20.678Z,0.17
2023-03-13T01:03:53.625Z,0.19
2023-03-13T01:06:24.311Z,0.21
2023-03-13T01:08:52.974Z,0.23
2023-03-13T01:11:22.653Z,0.25
2023-03-13T01:13:50.693Z,0.28
2023-03-13T01:16:20.797Z,0.31
2023-03-13T01:18:53.771Z,0.34
2023-03-13T01:21:21.891Z,0.34
2023-03-13T01:23:50.394Z,0.36
2023-03-13T01:26:18.616Z,0.36
2023-03-13T01:28:45.958Z,0.36
2023-03-13T01:31:34.821Z,0.38
2023-03-13T01:34:04.642Z,0.42
2023-03-13T01:36:32.035Z,0.44
2023-03-13T01:39:01.095Z,0.46
2023-03-13T01:41:30.328Z,0.48
2023-03-13T01:43:58.332Z,0.47
2023-03-13T01:46:30.776Z,0.51
2023-03-13T01:49:21.363Z,0.58
2023-03-13T01:52:22.936Z,0.65
2023-03-13T01:55:08.648Z,0.68
2023-03-13T01:57:47.181Z,0.69
2023-03-13T02:00:22.664Z,0.69
2023-03-13T02:02:53.685Z,0.61
2023-03-13T02:05:23.021Z,0.54
2023-03-13T02:07:57.337Z,0.50
2023-03-13T02:10:26.925Z,0.49
2023-03-13T02:12:57.773Z,0.50
2023-03-13T02:18:07.800Z,0.51
2023-03-13T02:20:34.883Z,0.54
2023-03-13T02:23:13.843Z,0.57
2023-03-13T02:25:48.762Z,0.59
2023-03-13T02:28:22.036Z,0.61
2023-03-13T02:30:51.679Z,0.62
2023-03-13T02:33:21.286Z,0.65
2023-03-13T02:35:48.693Z,0.69
2023-03-13T02:38:24.349Z,0.72
2023-03-13T02:40:54.018Z,0.73
2023-03-13T02:43:32.639Z,0.73
2023-03-13T02:46:15.058Z,0.75
2023-03-13T02:48:47.546Z,0.78
2023-03-13T02:51:25.121Z,0.80
2023-03-13T02:53:56.300Z,0.82
2023-03-13T02:56:25.904Z,0.83
2023-03-13T02:58:53.340Z,0.85
2023-03-13T03:01:22.362Z,0.88
2023-03-13T03:03:49.309Z,0.91
2023-03-13T03:06:16.302Z,0.94
2023-03-13T03:08:44.082Z,0.96
2023-03-13T03:11:12.764Z,0.97
2023-03-13T03:13:41.410Z,1.00
2023-03-13T03:16:15.465Z,1.02
2023-03-13T03:18:42.465Z,1.04
2023-03-13T03:21:09.363Z,1.04
2023-03-13T03:23:39.005Z,1.05
2023-03-13T03:26:07.648Z,1.06
2023-03-13T03:28:35.053Z,1.09
2023-03-13T03:31:06.356Z,1.11
2023-03-13T03:33:34.202Z,1.12
2023-03-13T03:36:07.479Z,1.14
2023-03-13T03:38:34.931Z,1.15
2023-03-13T03:41:02.325Z,1.16
2023-03-13T03:43:29.798Z,1.18
2023-03-13T03:45:56.947Z,1.19
2023-03-13T03:48:24.527Z,1.18
2023-03-13T03:50:51.774Z,1.16
2023-03-13T03:53:19.165Z,1.14
2023-03-13T03:57:08.197Z,1.14
2023-03-13T03:59:35.570Z,1.10
2023-03-13T04:02:05.834Z,1.08
2023-03-13T04:04:33.573Z,1.07
2023-03-13T04:07:13.169Z,1.06
2023-03-13T04:09:40.523Z,1.04
2023-03-13T04:12:09.116Z,1.03
2023-03-13T04:14:40.754Z,1.02
2023-03-13T04:17:10.282Z,1.02
2023-03-13T04:19:37.360Z,1.02
2023-03-13T04:22:04.278Z,1.03
2023-03-13T04:24:31.670Z,1.05
2023-03-13T04:26:59.644Z,1.06
2023-03-13T04:29:26.907Z,1.08
2023-03-13T04:32:02.495Z,1.09
2023-03-13T04:35:00.038Z,1.12
2023-03-13T04:38:01.341Z,1.18
2023-03-13T04:41:00.480Z,1.26
2023-03-13T04:43:44.061Z,1.35
2023-03-13T04:46:31.203Z,1.41
2023-03-13T04:49:14.635Z,1.45
2023-03-13T04:52:08.089Z,1.49
2023-03-13T04:54:54.196Z,1.52
2023-03-13T04:57:50.609Z,1.53
2023-03-13T05:00:41.172Z,1.54
2023-03-13T05:03:20.944Z,1.55
2023-03-13T05:06:02.372Z,1.55
2023-03-13T05:08:49.125Z,1.57
2023-03-13T05:11:19.229Z,1.59
2023-03-13T05:14:11.299Z,1.59
2023-03-13T05:16:59.454Z,1.59
2023-03-13T05:19:46.902Z,1.60
2023-03-13T05:22:37.977Z,1.62
2023-03-13T05:25:18.014Z,1.65
2023-03-13T05:27:53.560Z,1.68
2023-03-13T05:30:41.023Z,1.71
2023-03-13T05:33:14.474Z,1.74
2023-03-13T05:35:50.358Z,1.75
2023-03-13T05:38:23.054Z,1.80
2023-03-13T05:41:10.718Z,1.84
2023-03-13T05:43:56.449Z,1.86
2023-03-13T05:46:35.229Z,1.90
2023-03-13T05:49:16.816Z,1.93
2023-03-13T05:52:02.146Z,1.97
2023-03-13T05:54:41.307Z,1.99
2023-03-13T05:57:27.081Z,2.01
2023-03-13T06:00:29.556Z,2.02
2023-03-13T06:03:14.354Z,2.04
2023-03-13T06:05:44.023Z,2.09
2023-03-13T06:08:30.880Z,2.14
2023-03-13T06:11:02.039Z,2.19
2023-03-13T06:13:29.629Z,2.25
2023-03-13T06:16:01.287Z,2.32
2023-03-13T06:18:54.435Z,2.41
2023-03-13T06:21:21.386Z,2.46
2023-03-13T06:23:48.345Z,2.49
2023-03-13T06:26:15.145Z,2.49
2023-03-13T06:28:42.090Z,2.51
2023-03-13T06:31:09.269Z,2.56
2023-03-13T06:33:36.141Z,2.60
2023-03-13T06:36:04.236Z,2.61
2023-03-13T06:38:31.378Z,2.61
2023-03-13T06:40:58.660Z,2.61
2023-03-13T06:43:25.793Z,2.64
2023-03-13T06:45:52.871Z,2.68
2023-03-13T06:48:20.402Z,2.72
2023-03-13T06:50:47.320Z,2.76
2023-03-13T06:53:19.506Z,2.78
2023-03-13T06:55:47.170Z,2.82
2023-03-13T06:58:25.214Z,2.85
2023-03-13T07:00:57.978Z,2.86
2023-03-13T07:03:25.209Z,2.86
2023-03-13T07:05:59.722Z,2.88
2023-03-13T07:08:27.793Z,2.89
2023-03-13T07:10:59.629Z,2.90
2023-03-13T07:13:27.109Z,2.91
2023-03-13T07:15:54.584Z,2.94
2023-03-13T07:18:22.367Z,2.96
2023-03-13T07:20:54.726Z,2.99
2023-03-13T07:23:22.639Z,3.05
2023-03-13T07:25:57.537Z,3.13
2023-03-13T07:28:26.251Z,3.19
2023-03-13T07:30:53.949Z,3.25
2023-03-13T07:33:20.991Z,3.32
2023-03-13T07:35:50.498Z,3.39
2023-03-13T07:38:18.163Z,3.43
2023-03-13T07:40:53.385Z,3.46
2023-03-13T07:43:20.801Z,3.50
2023-03-13T07:45:59.723Z,3.55
2023-03-13T07:48:31.033Z,3.61
2023-03-13T07:50:58.644Z,3.65
2023-03-13T07:53:25.518Z,3.68
2023-03-13T07:56:04.207Z,3.67
2023-03-13T07:58:34.033Z,3.70
2023-03-13T08:01:01.289Z,3.76
2023-03-13T08:03:29.225Z,3.83
2023-03-13T08:06:20.641Z,3.84
2023-03-13T08:08:48.087Z,3.83
2023-03-13T08:11:21.436Z,3.87
2023-03-13T08:13:50.282Z,3.93
2023-03-13T08:16:24.404Z,3.99
2023-03-13T08:18:56.662Z,4.11
2023-03-13T08:21:29.002Z,4.19
2023-03-13T08:23:58.190Z,4.24
2023-03-13T08:26:30.320Z,4.30
2023-03-13T08:28:59.859Z,4.39
2023-03-13T08:31:31.917Z,4.53
2023-03-13T08:33:59.527Z,4.67
2023-03-13T08:36:29.237Z,4.78
2023-03-13T08:38:59.551Z,4.85
2023-03-13T08:41:32.298Z,4.85
2023-03-13T08:43:59.617Z,4.85
2023-03-13T08:46:29.248Z,4.89
2023-03-13T08:48:56.250Z,4.92
2023-03-13T08:51:25.790Z,4.93
2023-03-13T08:53:53.748Z,4.96
2023-03-13T08:56:22.464Z,4.99
2023-03-13T08:58:58.111Z,5.04
2023-03-13T09:01:27.966Z,5.09
2023-03-13T09:03:55.442Z,5.12
2023-03-13T09:06:22.934Z,5.16
2023-03-13T09:08:51.148Z,5.23
2023-03-13T09:11:20.764Z,5.30
2023-03-13T09:13:50.139Z,5.39
2023-03-13T09:16:22.872Z,5.53
2023-03-13T09:18:52.122Z,5.74
2023-03-13T09:21:31.363Z,6.01
2023-03-13T09:23:58.828Z,6.34
2023-03-13T09:26:27.746Z,6.69
2023-03-13T09:28:55.367Z,7.09
2023-03-13T09:31:28.073Z,7.72
2023-03-13T09:33:55.630Z,8.26
2023-03-13T09:36:24.176Z,8.78
2023-03-13T09:38:57.234Z,9.09
2023-03-13T09:41:26.412Z,9.09
2023-03-13T09:44:05.337Z,9.02
2023-03-13T09:46:52.559Z,8.95
2023-03-13T09:49:41.596Z,8.94
2023-03-13T09:52:22.576Z,9.14
2023-03-13T09:54:55.146Z,9.38
2023-03-13T09:57:38.768Z,9.53
2023-03-13T10:00:13.907Z,9.69
2023-03-13T10:02:46.825Z,9.72
2023-03-13T10:05:19.771Z,9.78
2023-03-13T10:07:47.126Z,9.77
2023-03-13T10:10:39.271Z,9.86
2023-03-13T10:13:39.861Z,10.07
2023-03-13T10:16:27.497Z,10.30
2023-03-13T10:18:58.345Z,10.59
2023-03-13T10:21:33.984Z,10.77
2023-03-13T10:24:33.113Z,10.96
2023-03-13T10:26:59.935Z,11.19
2023-03-13T10:29:29.613Z,11.25
2023-03-13T10:32:08.155Z,11.16
2023-03-13T10:34:56.727Z,11.16
2023-03-13T10:37:30.216Z,11.17
2023-03-13T10:40:24.906Z,11.10
2023-03-13T10:42:59.831Z,11.13
2023-03-13T10:45:31.478Z,11.13
2023-03-13T10:48:03.439Z,11.17
2023-03-13T10:50:36.990Z,11.12
2023-03-13T10:53:26.294Z,11.03
2023-03-13T10:55:55.622Z,11.03
2023-03-13T10:58:40.559Z,11.09
2023-03-13T11:01:42.119Z,11.12
2023-03-13T11:04:32.318Z,11.10
2023-03-13T11:07:06.021Z,11.09
2023-03-13T11:09:33.558Z,11.08
2023-03-13T11:12:33.646Z,11.11
2023-03-13T11:15:02.329Z,11.11
2023-03-13T11:17:41.025Z,11.10
2023-03-13T11:20:12.724Z,11.09
2023-03-13T11:22:55.642Z,11.10
2023-03-13T11:25:31.871Z,11.04
2023-03-13T11:28:04.288Z,10.99
2023-03-13T11:30:52.715Z,11.03
2023-03-13T11:33:22.397Z,11.08
2023-03-13T11:36:03.310Z,11.15
2023-03-13T11:38:36.692Z,11.26
2023-03-13T11:41:30.830Z,11.37
2023-03-13T11:44:13.033Z,11.42
2023-03-13T11:47:04.911Z,11.46
2023-03-13T11:50:00.421Z,11.39
2023-03-13T11:52:47.656Z,11.41
2023-03-13T11:55:20.426Z,11.57
2023-03-13T11:57:53.416Z,11.86
2023-03-13T12:00:36.933Z,12.45
2023-03-13T12:03:55.103Z,13.09
2023-03-13T12:06:29.796Z,13.41
2023-03-13T12:09:06.951Z,13.91
2023-03-13T12:11:43.935Z,14.18
2023-03-13T12:14:22.378Z,14.19
2023-03-13T12:17:01.105Z,14.04
2023-03-13T12:19:52.205Z,13.83
2023-03-13T12:22:40.402Z,13.65
2023-03-13T12:25:21.771Z,13.36
2023-03-13T12:27:55.281Z,13.14
2023-03-13T12:30:38.034Z,13.04
2023-03-13T12:33:30.094Z,12.89
2023-03-13T12:36:13.762Z,12.65
2023-03-13T12:39:01.217Z,12.43
2023-03-13T12:41:35.264Z,12.25
2023-03-13T12:44:09.038Z,12.13
2023-03-13T12:46:46.606Z,12.05
2023-03-13T12:49:30.030Z,11.93
2023-03-13T12:52:38.719Z,11.81
2023-03-13T12:55:27.388Z,11.67
2023-03-13T12:58:22.299Z,11.50
2023-03-13T13:00:51.776Z,11.28
2023-03-13T13:03:32.216Z,11.01
2023-03-13T13:06:11.111Z,10.68
2023-03-13T13:09:02.848Z,10.20
2023-03-13T13:11:39.494Z,9.89
2023-03-13T13:14:12.357Z,9.70
2023-03-13T13:16:44.259Z,9.53
2023-03-13T13:19:23.648Z,9.40
2023-03-13T13:22:28.844Z,9.31
2023-03-13T13:25:22.669Z,9.21
2023-03-13T13:27:49.824Z,9.14
2023-03-13T13:30:19.578Z,9.13
2023-03-13T13:32:46.588Z,9.10
2023-03-13T13:35:13.539Z,9.06
2023-03-13T13:37:41.358Z,9.02
2023-03-13T13:40:32.264Z,9.01
2023-03-13T13:43:02.911Z,9.03
2023-03-13T13:45:40.375Z,9.02
2023-03-13T13:48:40.097Z,9.00
2023-03-13T13:51:14.394Z,8.97
2023-03-13T13:53:53.324Z,8.95
2023-03-13T13:56:29.838Z,8.97
2023-03-13T13:59:25.110Z,8.95
2023-03-13T14:02:32.264Z,8.90
2023-03-13T14:05:15.201Z,8.82
2023-03-13T14:07:45.265Z,8.77
2023-03-13T14:10:29.558Z,8.76
2023-03-13T14:12:58.708Z,8.71
2023-03-13T14:15:28.890Z,8.65
2023-03-13T14:18:13.467Z,8.65
2023-03-13T14:20:53.158Z,8.63
2023-03-13T14:23:49.532Z,8.62
2023-03-13T14:26:19.884Z,8.57
2023-03-13T14:28:58.785Z,8.50
2023-03-13T14:31:28.228Z,8.48
2023-03-13T14:33:57.895Z,8.47
2023-03-13T14:36:25.718Z,8.45
2023-03-13T14:39:01.382Z,8.45
2023-03-13T14:41:45.243Z,8.46
2023-03-13T14:44:23.621Z,8.47
2023-03-13T14:46:56.756Z,8.49
2023-03-13T14:49:26.709Z,8.51
2023-03-13T14:51:59.256Z,8.53
2023-03-13T14:54:32.245Z,8.52
2023-03-13T14:57:09.624Z,8.52
2023-03-13T14:59:36.947Z,8.52
2023-03-13T15:02:13.298Z,8.53
2023-03-13T15:04:49.414Z,8.53
2023-03-13T15:07:17.286Z,8.53
2023-03-13T15:09:46.489Z,8.53
2023-03-13T15:12:16.559Z,8.54
2023-03-13T15:14:49.145Z,8.54
2023-03-13T15:17:24.145Z,8.52
2023-03-13T15:20:00.956Z,8.51
2023-03-13T15:22:33.494Z,8.47
2023-03-13T15:25:08.585Z,8.42
2023-03-13T15:27:39.009Z,8.37
2023-03-13T15:30:07.289Z,8.31
2023-03-13T15:32:38.158Z,8.26
2023-03-13T15:35:28.887Z,8.24
2023-03-13T15:37:58.078Z,8.22
2023-03-13T15:40:25.699Z,8.19
2023-03-13T15:42:53.371Z,8.15
2023-03-13T15:45:21.315Z,8.12
2023-03-13T15:47:49.154Z,8.10
2023-03-13T15:50:22.795Z,8.08
2023-03-13T15:52:49.709Z,8.06
2023-03-13T15:55:16.937Z,8.05
2023-03-13T15:57:49.273Z,8.05
2023-03-13T16:00:21.267Z,8.05
2023-03-13T16:02:48.449Z,8.03
2023-03-13T16:05:16.167Z,8.03
2023-03-13T16:07:43.373Z,8.04
2023-03-13T16:10:23.855Z,8.03
2023-03-13T16:12:52.980Z,8.02
2023-03-13T16:15:20.309Z,8.01
2023-03-13T16:17:47.544Z,8.01
2023-03-13T16:20:18.274Z,8.01
2023-03-13T16:22:45.669Z,8.01
2023-03-13T16:25:14.039Z,8.02
2023-03-13T16:27:42.054Z,8.03
2023-03-13T16:30:21.740Z,8.03
2023-03-13T16:32:48.845Z,8.04
2023-03-13T16:35:15.915Z,8.05
2023-03-13T16:37:43.079Z,8.07
2023-03-13T16:40:19.005Z,8.08
2023-03-13T16:42:45.971Z,8.08
2023-03-13T16:45:14.921Z,8.10
2023-03-13T16:47:43.771Z,8.10
2023-03-13T16:50:23.649Z,8.12
2023-03-13T16:52:51.774Z,8.12
2023-03-13T16:55:20.014Z,8.11
2023-03-13T16:57:47.081Z,8.12
2023-03-13T17:00:22.367Z,8.14
2023-03-13T17:02:49.806Z,8.14
2023-03-13T17:05:17.669Z,8.14
2023-03-13T17:07:48.054Z,8.14
2023-03-13T17:10:30.338Z,8.14
2023-03-13T17:12:58.179Z,8.14
2023-03-13T17:15:30.190Z,8.14
2023-03-13T17:17:57.324Z,8.14
2023-03-13T17:20:30.074Z,8.16
2023-03-13T17:22:57.675Z,8.15
2023-03-13T17:25:25.489Z,8.15
2023-03-13T17:27:53.090Z,8.16
2023-03-13T17:30:27.778Z,8.17
2023-03-13T17:32:54.901Z,8.19
2023-03-13T17:35:22.871Z,8.20
2023-03-13T17:37:50.297Z,8.21
2023-03-13T17:40:24.590Z,8.23
2023-03-13T17:42:51.584Z,8.25
2023-03-13T17:45:19.346Z,8.27
2023-03-13T17:47:47.327Z,8.29
2023-03-13T17:50:17.383Z,8.30
2023-03-13T17:52:44.598Z,8.31
2023-03-13T17:55:14.706Z,8.32
2023-03-13T17:57:42.264Z,8.32
2023-03-13T18:00:20.450Z,8.32
2023-03-13T18:02:47.409Z,8.35
2023-03-13T18:05:14.532Z,8.38
2023-03-13T18:07:44.451Z,8.42
2023-03-13T18:10:16.003Z,8.47
2023-03-13T18:12:42.933Z,8.51
2023-03-13T18:15:10.374Z,8.53
2023-03-13T18:17:37.334Z,8.55
2023-03-13T18:20:05.354Z,8.59
2023-03-13T18:22:34.705Z,8.62
2023-03-13T18:25:01.951Z,8.63
2023-03-13T18:27:29.197Z,8.65
2023-03-13T18:29:58.899Z,8.67
2023-03-13T18:32:25.796Z,8.69
2023-03-13T18:34:52.643Z,8.70
2023-03-13T18:37:19.483Z,8.71
2023-03-13T18:39:46.347Z,8.73
2023-03-13T18:42:13.148Z,8.74
2023-03-13T18:44:40.191Z,8.77
2023-03-13T18:47:15.525Z,8.78
2023-03-13T18:49:42.746Z,8.81
2023-03-13T18:52:11.678Z,8.83
2023-03-13T18:54:39.026Z,8.83
2023-03-13T18:57:32.009Z,8.84
2023-03-13T18:59:58.886Z,8.85
2023-03-13T19:02:25.796Z,8.86
2023-03-13T19:04:52.761Z,8.86
2023-03-13T19:07:26.471Z,8.86
2023-03-13T19:09:56.535Z,8.86
2023-03-13T19:12:23.554Z,8.88
2023-03-13T19:14:50.506Z,8.88
2023-03-13T19:17:29.639Z,8.90
2023-03-13T19:19:59.698Z,8.91
2023-03-13T19:22:27.103Z,8.92
2023-03-13T19:24:54.082Z,8.92
2023-03-13T19:27:20.992Z,8.94
2023-03-13T19:29:48.121Z,8.97
2023-03-13T19:32:17.756Z,8.99
2023-03-13T19:34:44.898Z,9.03
2023-03-13T19:37:14.351Z,9.04
2023-03-13T19:39:42.561Z,9.08
2023-03-13T19:42:09.659Z,9.12
2023-03-13T19:44:37.795Z,9.14
2023-03-13T19:47:05.548Z,9.18
2023-03-13T19:49:33.785Z,9.21
2023-03-13T19:52:00.756Z,9.25
2023-03-13T19:54:27.660Z,9.27
2023-03-13T19:56:54.828Z,9.28
2023-03-13T19:59:24.498Z,9.28
2023-03-13T20:01:51.495Z,9.28
2023-03-13T20:04:18.417Z,9.29
2023-03-13T20:06:45.882Z,9.30
2023-03-13T20:09:15.383Z,9.30
2023-03-13T20:11:43.716Z,9.31
2023-03-13T20:14:11.050Z,9.31
2023-03-13T20:16:38.533Z,9.33
2023-03-13T20:19:05.521Z,9.36
2023-03-13T20:21:37.585Z,9.37
2023-03-13T20:24:05.097Z,9.38
2023-03-13T20:26:32.031Z,9.40
2023-03-13T20:28:59.152Z,9.40
2023-03-13T20:31:29.845Z,9.41
2023-03-13T20:33:58.262Z,9.41
2023-03-13T20:36:25.915Z,9.41
2023-03-13T20:38:52.990Z,9.42
2023-03-13T20:41:25.050Z,9.42
2023-03-13T20:43:54.004Z,9.42
2023-03-13T20:46:21.521Z,9.43
2023-03-13T20:48:49.114Z,9.45
2023-03-13T20:51:17.129Z,9.46
2023-03-13T20:53:44.661Z,9.47
2023-03-13T20:56:12.466Z,9.47
2023-03-13T20:58:40.287Z,9.48
2023-03-13T21:01:08.575Z,9.51
2023-03-13T21:03:36.488Z,9.53
2023-03-13T21:06:11.818Z,9.54
2023-03-13T21:08:39.283Z,9.55
2023-03-13T21:11:14.177Z,9.53
2023-03-13T21:13:41.165Z,9.53
2023-03-13T21:16:08.932Z,9.55
2023-03-13T21:18:36.460Z,9.56
2023-03-13T21:21:09.259Z,9.58
2023-03-13T21:23:37.851Z,9.59
2023-03-13T21:26:05.857Z,9.60
2023-03-13T21:28:32.980Z,9.63
2023-03-13T21:31:12.221Z,9.67
2023-03-13T21:33:41.391Z,9.69
2023-03-13T21:36:10.138Z,9.69
2023-03-13T21:38:37.124Z,9.68
2023-03-13T21:41:09.262Z,9.68
2023-03-13T21:43:37.618Z,9.69
2023-03-13T21:46:04.774Z,9.70
2023-03-13T21:48:31.806Z,9.70
2023-03-13T21:50:59.310Z,9.69
2023-03-13T21:53:27.068Z,9.68
2023-03-13T21:55:54.200Z,9.67
2023-03-13T21:58:21.140Z,9.68
2023-03-13T22:00:48.244Z,9.69
2023-03-13T22:03:15.428Z,9.70
2023-03-13T22:05:44.037Z,9.71
2023-03-13T22:08:11.602Z,9.70
2023-03-13T22:10:39.299Z,9.69
2023-03-13T22:13:10.433Z,9.69
2023-03-13T22:15:37.375Z,9.69
2023-03-13T22:18:04.482Z,9.66
2023-03-13T22:20:31.440Z,9.63
2023-03-13T22:22:58.391Z,9.63
2023-03-13T22:25:25.451Z,9.64
2023-03-13T22:27:52.508Z,9.64
2023-03-13T22:30:19.529Z,9.64
2023-03-13T22:32:46.424Z,9.64
2023-03-13T22:35:13.514Z,9.64
2023-03-13T22:37:40.545Z,9.64
2023-03-13T22:40:07.983Z,9.65
2023-03-13T22:42:35.355Z,9.66
2023-03-13T22:45:02.375Z,9.70
2023-03-13T22:47:32.706Z,9.74
2023-03-13T22:49:59.786Z,9.75
2023-03-13T22:52:31.105Z,9.77
2023-03-13T22:54:58.822Z,9.79
2023-03-13T22:57:26.044Z,9.80
2023-03-13T22:59:54.074Z,9.78
2023-03-13T23:02:21.714Z,9.78
2023-03-13T23:04:48.516Z,9.78
2023-03-13T23:07:15.420Z,9.78
2023-03-13T23:09:42.393Z,9.76
2023-03-13T23:12:09.347Z,9.74
2023-03-13T23:14:36.560Z,9.71
2023-03-13T23:17:03.887Z,9.66
2023-03-13T23:19:34.658Z,9.55
2023-03-13T23:22:01.818Z,9.44
2023-03-13T23:24:29.079Z,9.35
2023-03-13T23:26:56.146Z,9.30
2023-03-13T23:29:23.198Z,9.25
2023-03-13T23:31:50.236Z,9.18
2023-03-13T23:34:22.019Z,9.12
2023-03-13T23:36:50.126Z,9.07
2023-03-13T23:39:17.131Z,9.02
2023-03-13T23:41:44.086Z,8.98
2023-03-13T23:44:11.133Z,8.92
2023-03-13T23:46:37.960Z,8.88
2023-03-13T23:49:05.235Z,8.84
2023-03-13T23:51:33.300Z,8.82
2023-03-13T23:54:00.798Z,8.81
2023-03-13T23:56:29.733Z,8.83
2023-03-13T23:58:56.524Z,8.82
